sensor_id;sensor_type;location;lat;lon;timestamp;pressure;altitude;pressure_sealevel;temperature;humidity
62946;BME280;52164;52.212;-1.010;2023-04-22T00:00:23;99871.49;;;7.51;70.18
62946;BME280;52164;52.212;-1.010;2023-04-22T00:02:50;99864.73;;;7.49;70.54
62946;BME280;52164;52.212;-1.010;2023-04-22T00:05:16;99863.84;;;7.46;70.39
62946;BME280;52164;52.212;-1.010;2023-04-22T00:07:42;99861.17;;;7.43;70.02
62946;BME280;52164;52.212;-1.010;2023-04-22T00:10:08;99859.92;;;7.40;69.88
62946;BME280;52164;52.212;-1.010;2023-04-22T00:12:34;99857.96;;;7.35;70.11
62946;BME280;52164;52.212;-1.010;2023-04-22T00:15:01;99856.88;;;7.29;70.64
62946;BME280;52164;52.212;-1.010;2023-04-22T00:17:26;99851.71;;;7.27;70.59
62946;BME280;52164;52.212;-1.010;2023-04-22T00:19:51;99850.30;;;7.23;71.06
62946;BME280;52164;52.212;-1.010;2023-04-22T00:22:18;99846.20;;;7.20;71.43
62946;BME280;52164;52.212;-1.010;2023-04-22T00:24:43;99839.45;;;7.19;71.67
62946;BME280;52164;52.212;-1.010;2023-04-22T00:27:09;99841.76;;;7.20;71.95
62946;BME280;52164;52.212;-1.010;2023-04-22T00:29:34;99837.86;;;7.20;71.60
62946;BME280;52164;52.212;-1.010;2023-04-22T00:32:00;99835.55;;;7.19;72.01
62946;BME280;52164;52.212;-1.010;2023-04-22T00:34:25;99827.38;;;7.19;72.39
62946;BME280;52164;52.212;-1.010;2023-04-22T00:36:50;99828.98;;;7.17;72.13
62946;BME280;52164;52.212;-1.010;2023-04-22T00:39:16;99826.49;;;7.16;72.23
62946;BME280;52164;52.212;-1.010;2023-04-22T00:41:41;99820.45;;;7.16;72.47
62946;BME280;52164;52.212;-1.010;2023-04-22T00:44:08;99816.90;;;7.15;72.48
62946;BME280;52164;52.212;-1.010;2023-04-22T00:46:35;99811.23;;;7.15;72.44
62946;BME280;52164;52.212;-1.010;2023-04-22T00:49:00;99807.86;;;7.16;72.34
62946;BME280;52164;52.212;-1.010;2023-04-22T00:51:26;99798.80;;;7.16;72.60
62946;BME280;52164;52.212;-1.010;2023-04-22T00:53:52;99799.69;;;7.17;71.95
62946;BME280;52164;52.212;-1.010;2023-04-22T00:56:17;99797.73;;;7.16;71.94
62946;BME280;52164;52.212;-1.010;2023-04-22T00:58:45;99798.80;;;7.15;71.90
62946;BME280;52164;52.212;-1.010;2023-04-22T01:01:11;99795.07;;;7.14;71.62
62946;BME280;52164;52.212;-1.010;2023-04-22T01:03:37;99795.41;;;7.10;71.64
62946;BME280;52164;52.212;-1.010;2023-04-22T01:06:04;99786.54;;;7.07;72.01
62946;BME280;52164;52.212;-1.010;2023-04-22T01:08:29;99783.86;;;7.06;72.02
62946;BME280;52164;52.212;-1.010;2023-04-22T01:10:55;99788.48;;;7.07;72.01
62946;BME280;52164;52.212;-1.010;2023-04-22T01:13:21;99788.66;;;7.07;72.41
62946;BME280;52164;52.212;-1.010;2023-04-22T01:15:46;99783.52;;;7.08;72.60
62946;BME280;52164;52.212;-1.010;2023-04-22T01:18:12;99780.34;;;7.10;72.32
62946;BME280;52164;52.212;-1.010;2023-04-22T01:20:37;99780.17;;;7.13;72.06
62946;BME280;52164;52.212;-1.010;2023-04-22T01:23:03;99779.83;;;7.15;72.29
62946;BME280;52164;52.212;-1.010;2023-04-22T01:25:34;99775.91;;;7.15;72.76
62946;BME280;52164;52.212;-1.010;2023-04-22T01:27:59;99778.75;;;7.16;72.64
62946;BME280;52164;52.212;-1.010;2023-04-22T01:30:25;99772.91;;;7.18;72.90
62946;BME280;52164;52.212;-1.010;2023-04-22T01:32:50;99767.93;;;7.19;73.06
62946;BME280;52164;52.212;-1.010;2023-04-22T01:35:16;99756.75;;;7.20;72.97
62946;BME280;52164;52.212;-1.010;2023-04-22T01:37:41;99755.88;;;7.21;73.19
62946;BME280;52164;52.212;-1.010;2023-04-22T01:40:07;99753.21;;;7.22;73.37
62946;BME280;52164;52.212;-1.010;2023-04-22T01:42:33;99748.06;;;7.21;73.21
62946;BME280;52164;52.212;-1.010;2023-04-22T01:44:58;99746.48;;;7.22;73.57
62946;BME280;52164;52.212;-1.010;2023-04-22T01:47:24;99749.30;;;7.21;73.63
62946;BME280;52164;52.212;-1.010;2023-04-22T01:49:49;99737.23;;;7.18;73.49
62946;BME280;52164;52.212;-1.010;2023-04-22T01:52:16;99732.96;;;7.15;73.84
62946;BME280;52164;52.212;-1.010;2023-04-22T01:54:41;99731.02;;;7.14;73.62
62946;BME280;52164;52.212;-1.010;2023-04-22T01:57:10;99732.27;;;7.13;73.76
62946;BME280;52164;52.212;-1.010;2023-04-22T01:59:40;99735.27;;;7.10;73.93
62946;BME280;52164;52.212;-1.010;2023-04-22T02:02:05;99738.09;;;7.06;73.85
62946;BME280;52164;52.212;-1.010;2023-04-22T02:04:33;99741.82;;;7.01;73.60
62946;BME280;52164;52.212;-1.010;2023-04-22T02:06:58;99742.69;;;6.97;73.84
62946;BME280;52164;52.212;-1.010;2023-04-22T02:09:23;99742.88;;;6.95;73.73
62946;BME280;52164;52.212;-1.010;2023-04-22T02:11:49;99743.04;;;6.92;74.17
62946;BME280;52164;52.212;-1.010;2023-04-22T02:14:14;99739.13;;;6.89;74.39
62946;BME280;52164;52.212;-1.010;2023-04-22T02:16:40;99736.11;;;6.88;74.38
62946;BME280;52164;52.212;-1.010;2023-04-22T02:19:05;99733.44;;;6.88;74.21
62946;BME280;52164;52.212;-1.010;2023-04-22T02:21:30;99731.50;;;6.88;74.39
62946;BME280;52164;52.212;-1.010;2023-04-22T02:23:57;99734.87;;;6.89;74.32
62946;BME280;52164;52.212;-1.010;2023-04-22T02:26:22;99735.22;;;6.90;74.70
62946;BME280;52164;52.212;-1.010;2023-04-22T02:28:49;99737.73;;;6.93;74.49
62946;BME280;52164;52.212;-1.010;2023-04-22T02:31:15;99734.18;;;6.96;74.28
62946;BME280;52164;52.212;-1.010;2023-04-22T02:33:40;99732.95;;;7.00;74.39
62946;BME280;52164;52.212;-1.010;2023-04-22T02:36:05;99730.45;;;7.05;74.57
62946;BME280;52164;52.212;-1.010;2023-04-22T02:38:31;99728.52;;;7.10;74.55
62946;BME280;52164;52.212;-1.010;2023-04-22T02:40:56;99733.68;;;7.13;74.22
62946;BME280;52164;52.212;-1.010;2023-04-22T02:43:21;99729.95;;;7.18;74.32
62946;BME280;52164;52.212;-1.010;2023-04-22T02:45:46;99729.09;;;7.22;74.31
62946;BME280;52164;52.212;-1.010;2023-04-22T02:48:12;99725.88;;;7.26;74.47
62946;BME280;52164;52.212;-1.010;2023-04-22T02:50:37;99723.05;;;7.27;74.12
62946;BME280;52164;52.212;-1.010;2023-04-22T02:53:02;99726.95;;;7.29;74.29
62946;BME280;52164;52.212;-1.010;2023-04-22T02:55:28;99730.31;;;7.30;74.23
62946;BME280;52164;52.212;-1.010;2023-04-22T02:57:53;99726.42;;;7.31;74.36
62946;BME280;52164;52.212;-1.010;2023-04-22T03:00:21;99722.51;;;7.34;74.16
62946;BME280;52164;52.212;-1.010;2023-04-22T03:02:46;99723.23;;;7.36;74.44
62946;BME280;52164;52.212;-1.010;2023-04-22T03:05:14;99726.77;;;7.38;74.71
62946;BME280;52164;52.212;-1.010;2023-04-22T03:07:40;99724.29;;;7.41;74.50
62946;BME280;52164;52.212;-1.010;2023-04-22T03:10:05;99724.29;;;7.43;74.70
62946;BME280;52164;52.212;-1.010;2023-04-22T03:12:31;99721.10;;;7.45;74.64
62946;BME280;52164;52.212;-1.010;2023-04-22T03:14:56;99721.09;;;7.45;74.77
62946;BME280;52164;52.212;-1.010;2023-04-22T03:17:21;99721.45;;;7.46;74.63
62946;BME280;52164;52.212;-1.010;2023-04-22T03:19:47;99717.02;;;7.46;74.27
62946;BME280;52164;52.212;-1.010;2023-04-22T03:22:12;99713.28;;;7.47;74.51
62946;BME280;52164;52.212;-1.010;2023-04-22T03:24:37;99707.07;;;7.47;74.25
62946;BME280;52164;52.212;-1.010;2023-04-22T03:27:02;99703.52;;;7.44;74.40
62946;BME280;52164;52.212;-1.010;2023-04-22T03:29:28;99697.48;;;7.42;74.54
62946;BME280;52164;52.212;-1.010;2023-04-22T03:31:53;99692.88;;;7.39;74.93
62946;BME280;52164;52.212;-1.010;2023-04-22T03:34:19;99684.17;;;7.38;74.64
62946;BME280;52164;52.212;-1.010;2023-04-22T03:36:44;99676.90;;;7.37;75.09
62946;BME280;52164;52.212;-1.010;2023-04-22T03:39:10;99671.21;;;7.37;75.00
62946;BME280;52164;52.212;-1.010;2023-04-22T03:41:35;99666.60;;;7.38;74.96
62946;BME280;52164;52.212;-1.010;2023-04-22T03:44:00;99666.95;;;7.40;74.89
62946;BME280;52164;52.212;-1.010;2023-04-22T03:46:26;99666.06;;;7.42;75.01
62946;BME280;52164;52.212;-1.010;2023-04-22T03:48:51;99668.20;;;7.45;74.76
62946;BME280;52164;52.212;-1.010;2023-04-22T03:51:16;99668.19;;;7.47;74.94
62946;BME280;52164;52.212;-1.010;2023-04-22T03:53:41;99664.98;;;7.50;75.02
62946;BME280;52164;52.212;-1.010;2023-04-22T03:56:07;99667.83;;;7.54;74.82
62946;BME280;52164;52.212;-1.010;2023-04-22T03:58:32;99667.27;;;7.57;74.94
62946;BME280;52164;52.212;-1.010;2023-04-22T04:00:57;99665.33;;;7.60;74.93
62946;BME280;52164;52.212;-1.010;2023-04-22T04:03:23;99663.91;;;7.64;75.32
62946;BME280;52164;52.212;-1.010;2023-04-22T04:05:49;99661.23;;;7.68;75.26
62946;BME280;52164;52.212;-1.010;2023-04-22T04:08:14;99657.85;;;7.72;74.89
62946;BME280;52164;52.212;-1.010;2023-04-22T04:10:40;99656.07;;;7.75;74.96
62946;BME280;52164;52.212;-1.010;2023-04-22T04:13:05;99650.91;;;7.79;74.95
62946;BME280;52164;52.212;-1.010;2023-04-22T04:15:31;99646.29;;;7.81;74.65
62946;BME280;52164;52.212;-1.010;2023-04-22T04:17:56;99640.41;;;7.84;74.64
62946;BME280;52164;52.212;-1.010;2023-04-22T04:20:25;99639.87;;;7.85;74.63
62946;BME280;52164;52.212;-1.010;2023-04-22T04:22:50;99637.04;;;7.86;74.90
62946;BME280;52164;52.212;-1.010;2023-04-22T04:25:15;99637.20;;;7.87;74.56
62946;BME280;52164;52.212;-1.010;2023-04-22T04:27:42;99634.20;;;7.86;74.52
62946;BME280;52164;52.212;-1.010;2023-04-22T04:30:08;99630.80;;;7.84;74.58
62946;BME280;52164;52.212;-1.010;2023-04-22T04:32:34;99625.85;;;7.83;74.57
62946;BME280;52164;52.212;-1.010;2023-04-22T04:34:59;99628.87;;;7.82;74.49
62946;BME280;52164;52.212;-1.010;2023-04-22T04:37:26;99629.95;;;7.79;74.67
62946;BME280;52164;52.212;-1.010;2023-04-22T04:39:51;99627.83;;;7.76;74.31
62946;BME280;52164;52.212;-1.010;2023-04-22T04:42:17;99624.98;;;7.73;73.94
62946;BME280;52164;52.212;-1.010;2023-04-22T04:44:43;99621.45;;;7.69;73.96
62946;BME280;52164;52.212;-1.010;2023-04-22T04:47:11;99619.69;;;7.65;73.92
62946;BME280;52164;52.212;-1.010;2023-04-22T04:49:37;99615.42;;;7.63;73.79
62946;BME280;52164;52.212;-1.010;2023-04-22T04:52:04;99622.01;;;7.58;73.70
62946;BME280;52164;52.212;-1.010;2023-04-22T04:54:29;99626.64;;;7.52;73.40
62946;BME280;52164;52.212;-1.010;2023-04-22T04:56:55;99630.73;;;7.47;73.63
62946;BME280;52164;52.212;-1.010;2023-04-22T04:59:21;99632.52;;;7.41;73.32
62946;BME280;52164;52.212;-1.010;2023-04-22T05:01:48;99632.52;;;7.36;73.28
62946;BME280;52164;52.212;-1.010;2023-04-22T05:04:14;99632.52;;;7.31;73.40
62946;BME280;52164;52.212;-1.010;2023-04-22T05:06:39;99631.83;;;7.27;73.52
62946;BME280;52164;52.212;-1.010;2023-04-22T05:09:05;99629.52;;;7.21;73.67
62946;BME280;52164;52.212;-1.010;2023-04-22T05:11:31;99630.58;;;7.14;74.00
62946;BME280;52164;52.212;-1.010;2023-04-22T05:13:57;99620.46;;;7.07;74.08
62946;BME280;52164;52.212;-1.010;2023-04-22T05:16:22;99625.96;;;7.01;74.27
62946;BME280;52164;52.212;-1.010;2023-04-22T05:18:47;99625.44;;;6.95;74.38
62946;BME280;52164;52.212;-1.010;2023-04-22T05:21:13;99622.77;;;6.89;74.33
62946;BME280;52164;52.212;-1.010;2023-04-22T05:23:38;99619.39;;;6.84;74.06
62946;BME280;52164;52.212;-1.010;2023-04-22T05:26:03;99617.80;;;6.81;74.15
62946;BME280;52164;52.212;-1.010;2023-04-22T05:28:28;99616.20;;;6.77;74.18
62946;BME280;52164;52.212;-1.010;2023-04-22T05:30:54;99615.48;;;6.75;74.38
62946;BME280;52164;52.212;-1.010;2023-04-22T05:33:19;99613.35;;;6.74;74.53
62946;BME280;52164;52.212;-1.010;2023-04-22T05:35:44;99610.34;;;6.76;74.52
62946;BME280;52164;52.212;-1.010;2023-04-22T05:38:09;99606.45;;;6.78;74.46
62946;BME280;52164;52.212;-1.010;2023-04-22T05:40:35;99603.08;;;6.81;74.52
62946;BME280;52164;52.212;-1.010;2023-04-22T05:43:00;99600.24;;;6.83;74.42
62946;BME280;52164;52.212;-1.010;2023-04-22T05:45:25;99597.58;;;6.86;74.61
62946;BME280;52164;52.212;-1.010;2023-04-22T05:47:50;99599.71;;;6.90;74.43
62946;BME280;52164;52.212;-1.010;2023-04-22T05:50:16;99602.91;;;6.91;74.79
62946;BME280;52164;52.212;-1.010;2023-04-22T05:52:41;99601.48;;;6.94;74.62
62946;BME280;52164;52.212;-1.010;2023-04-22T05:55:06;99604.69;;;6.98;74.28
62946;BME280;52164;52.212;-1.010;2023-04-22T05:57:32;99602.91;;;7.00;74.30
62946;BME280;52164;52.212;-1.010;2023-04-22T05:59:57;99603.44;;;7.03;74.28
62946;BME280;52164;52.212;-1.010;2023-04-22T06:02:25;99604.50;;;7.08;74.24
62946;BME280;52164;52.212;-1.010;2023-04-22T06:04:50;99607.33;;;7.12;74.12
62946;BME280;52164;52.212;-1.010;2023-04-22T06:07:18;99611.94;;;7.14;73.79
62946;BME280;52164;52.212;-1.010;2023-04-22T06:09:43;99610.18;;;7.14;73.79
62946;BME280;52164;52.212;-1.010;2023-04-22T06:12:09;99611.94;;;7.17;73.81
62946;BME280;52164;52.212;-1.010;2023-04-22T06:14:34;99611.05;;;7.19;73.90
62946;BME280;52164;52.212;-1.010;2023-04-22T06:16:59;99611.95;;;7.23;73.72
62946;BME280;52164;52.212;-1.010;2023-04-22T06:19:25;99614.60;;;7.26;73.64
62946;BME280;52164;52.212;-1.010;2023-04-22T06:21:50;99617.63;;;7.28;73.59
62946;BME280;52164;52.212;-1.010;2023-04-22T06:24:16;99614.60;;;7.28;73.57
62946;BME280;52164;52.212;-1.010;2023-04-22T06:26:42;99614.60;;;7.30;73.44
62946;BME280;52164;52.212;-1.010;2023-04-22T06:29:07;99611.05;;;7.30;73.72
62946;BME280;52164;52.212;-1.010;2023-04-22T06:31:33;99606.42;;;7.31;73.59
62946;BME280;52164;52.212;-1.010;2023-04-22T06:33:58;99609.63;;;7.34;73.70
62946;BME280;52164;52.212;-1.010;2023-04-22T06:36:23;99603.23;;;7.37;73.89
62946;BME280;52164;52.212;-1.010;2023-04-22T06:38:49;99605.89;;;7.40;73.57
62946;BME280;52164;52.212;-1.010;2023-04-22T06:41:15;99606.77;;;7.43;73.19
62946;BME280;52164;52.212;-1.010;2023-04-22T06:43:40;99610.69;;;7.45;73.10
62946;BME280;52164;52.212;-1.010;2023-04-22T06:46:05;99612.26;;;7.49;73.10
62946;BME280;52164;52.212;-1.010;2023-04-22T06:48:31;99611.20;;;7.52;73.29
62946;BME280;52164;52.212;-1.010;2023-04-22T06:50:56;99605.52;;;7.52;72.94
62946;BME280;52164;52.212;-1.010;2023-04-22T06:53:21;99609.23;;;7.51;73.04
62946;BME280;52164;52.212;-1.010;2023-04-22T06:55:47;99607.46;;;7.51;72.56
62946;BME280;52164;52.212;-1.010;2023-04-22T06:58:12;99610.13;;;7.53;72.75
62946;BME280;52164;52.212;-1.010;2023-04-22T07:00:38;99610.10;;;7.59;72.60
62946;BME280;52164;52.212;-1.010;2023-04-22T07:03:03;99615.23;;;7.70;72.73
62946;BME280;52164;52.212;-1.010;2023-04-22T07:05:28;99616.44;;;7.80;72.36
62946;BME280;52164;52.212;-1.010;2023-04-22T07:07:54;99623.16;;;7.93;71.93
62946;BME280;52164;52.212;-1.010;2023-04-22T07:10:19;99619.73;;;8.03;71.76
62946;BME280;52164;52.212;-1.010;2023-04-22T07:12:44;99624.14;;;8.12;71.70
62946;BME280;52164;52.212;-1.010;2023-04-22T07:15:10;99629.61;;;8.23;71.71
62946;BME280;52164;52.212;-1.010;2023-04-22T07:17:35;99634.54;;;8.33;71.26
62946;BME280;52164;52.212;-1.010;2023-04-22T07:20:01;99633.43;;;8.42;71.46
62946;BME280;52164;52.212;-1.010;2023-04-22T07:22:26;99635.66;;;8.60;71.23
62946;BME280;52164;52.212;-1.010;2023-04-22T07:24:51;99626.52;;;8.74;71.04
62946;BME280;52164;52.212;-1.010;2023-04-22T07:27:16;99621.23;;;8.89;70.75
62946;BME280;52164;52.212;-1.010;2023-04-22T07:29:42;99610.22;;;9.10;70.34
62946;BME280;52164;52.212;-1.010;2023-04-22T07:32:07;99609.77;;;9.22;70.26
62946;BME280;52164;52.212;-1.010;2023-04-22T07:34:33;99616.61;;;9.33;69.85
62946;BME280;52164;52.212;-1.010;2023-04-22T07:36:58;99614.95;;;9.39;69.37
62946;BME280;52164;52.212;-1.010;2023-04-22T07:39:23;99611.77;;;9.37;69.64
62946;BME280;52164;52.212;-1.010;2023-04-22T07:41:49;99601.15;;;9.29;69.21
62946;BME280;52164;52.212;-1.010;2023-04-22T07:44:15;99600.70;;;9.20;69.16
62946;BME280;52164;52.212;-1.010;2023-04-22T07:46:45;99600.12;;;9.24;68.77
62946;BME280;52164;52.212;-1.010;2023-04-22T07:49:10;99599.37;;;9.29;68.87
62946;BME280;52164;52.212;-1.010;2023-04-22T07:51:38;99598.43;;;9.34;68.81
62946;BME280;52164;52.212;-1.010;2023-04-22T07:54:03;99604.37;;;9.46;68.96
62946;BME280;52164;52.212;-1.010;2023-04-22T07:56:28;99598.64;;;9.50;68.58
62946;BME280;52164;52.212;-1.010;2023-04-22T07:58:54;99604.86;;;9.50;68.60
62946;BME280;52164;52.212;-1.010;2023-04-22T08:01:19;99613.25;;;9.49;68.56
62946;BME280;52164;52.212;-1.010;2023-04-22T08:03:46;99616.81;;;9.48;68.25
62946;BME280;52164;52.212;-1.010;2023-04-22T08:06:11;99616.63;;;9.49;68.69
62946;BME280;52164;52.212;-1.010;2023-04-22T08:08:36;99613.55;;;9.53;68.40
62946;BME280;52164;52.212;-1.010;2023-04-22T08:11:02;99614.45;;;9.52;68.33
62946;BME280;52164;52.212;-1.010;2023-04-22T08:13:27;99619.10;;;9.50;68.68
62946;BME280;52164;52.212;-1.010;2023-04-22T08:15:52;99613.27;;;9.45;68.42
62946;BME280;52164;52.212;-1.010;2023-04-22T08:18:18;99613.89;;;9.39;68.31
62946;BME280;52164;52.212;-1.010;2023-04-22T08:20:43;99614.77;;;9.39;68.35
62946;BME280;52164;52.212;-1.010;2023-04-22T08:23:08;99614.36;;;9.44;68.17
62946;BME280;52164;52.212;-1.010;2023-04-22T08:25:34;99615.85;;;9.56;68.00
62946;BME280;52164;52.212;-1.010;2023-04-22T08:28:00;99614.91;;;9.62;67.95
62946;BME280;52164;52.212;-1.010;2023-04-22T08:30:25;99615.55;;;9.66;67.92
62946;BME280;52164;52.212;-1.010;2023-04-22T08:32:50;99617.08;;;9.75;67.69
62946;BME280;52164;52.212;-1.010;2023-04-22T08:35:17;99616.51;;;9.77;67.60
62946;BME280;52164;52.212;-1.010;2023-04-22T08:37:42;99611.64;;;9.82;67.59
62946;BME280;52164;52.212;-1.010;2023-04-22T08:40:08;99613.08;;;9.81;67.43
62946;BME280;52164;52.212;-1.010;2023-04-22T08:42:33;99618.33;;;9.75;67.74
62946;BME280;52164;52.212;-1.010;2023-04-22T08:44:58;99614.44;;;9.71;67.74
62946;BME280;52164;52.212;-1.010;2023-04-22T08:47:24;99608.06;;;9.67;67.45
62946;BME280;52164;52.212;-1.010;2023-04-22T08:49:50;99604.64;;;9.70;67.19
62946;BME280;52164;52.212;-1.010;2023-04-22T08:52:15;99606.80;;;9.84;67.50
62946;BME280;52164;52.212;-1.010;2023-04-22T08:54:41;99604.55;;;10.10;67.10
62946;BME280;52164;52.212;-1.010;2023-04-22T08:57:06;99601.84;;;10.41;66.28
62946;BME280;52164;52.212;-1.010;2023-04-22T08:59:32;99598.43;;;10.67;65.66
62946;BME280;52164;52.212;-1.010;2023-04-22T09:01:58;99597.60;;;10.87;65.28
62946;BME280;52164;52.212;-1.010;2023-04-22T09:04:25;99596.58;;;11.06;64.94
62946;BME280;52164;52.212;-1.010;2023-04-22T09:06:50;99595.30;;;11.08;64.66
62946;BME280;52164;52.212;-1.010;2023-04-22T09:09:18;99597.39;;;10.99;64.69
62946;BME280;52164;52.212;-1.010;2023-04-22T09:11:43;99594.89;;;10.99;64.76
62946;BME280;52164;52.212;-1.010;2023-04-22T09:14:08;99596.26;;;11.04;64.64
62946;BME280;52164;52.212;-1.010;2023-04-22T09:16:38;99593.27;;;11.21;64.36
62946;BME280;52164;52.212;-1.010;2023-04-22T09:19:05;99593.09;;;11.42;63.60
62946;BME280;52164;52.212;-1.010;2023-04-22T09:21:31;99592.96;;;11.59;63.52
62946;BME280;52164;52.212;-1.010;2023-04-22T09:23:57;99587.48;;;11.74;63.38
62946;BME280;52164;52.212;-1.010;2023-04-22T09:26:24;99585.93;;;11.81;62.86
62946;BME280;52164;52.212;-1.010;2023-04-22T09:28:52;99590.36;;;11.92;62.95
62946;BME280;52164;52.212;-1.010;2023-04-22T09:31:18;99597.67;;;12.03;62.79
62946;BME280;52164;52.212;-1.010;2023-04-22T09:33:46;99598.89;;;12.13;62.61
62946;BME280;52164;52.212;-1.010;2023-04-22T09:36:12;99593.79;;;12.18;62.67
62946;BME280;52164;52.212;-1.010;2023-04-22T09:38:37;99593.69;;;12.23;62.68
62946;BME280;52164;52.212;-1.010;2023-04-22T09:41:07;99596.50;;;12.25;62.33
62946;BME280;52164;52.212;-1.010;2023-04-22T09:43:33;99596.72;;;12.31;62.35
62946;BME280;52164;52.212;-1.010;2023-04-22T09:45:58;99595.02;;;12.44;61.99
62946;BME280;52164;52.212;-1.010;2023-04-22T09:48:24;99596.81;;;12.59;61.69
62946;BME280;52164;52.212;-1.010;2023-04-22T09:50:50;99590.34;;;12.69;61.30
62946;BME280;52164;52.212;-1.010;2023-04-22T09:53:17;99588.12;;;12.79;61.34
62946;BME280;52164;52.212;-1.010;2023-04-22T09:55:44;99583.61;;;12.95;61.41
62946;BME280;52164;52.212;-1.010;2023-04-22T09:58:11;99580.47;;;13.14;60.85
62946;BME280;52164;52.212;-1.010;2023-04-22T10:00:46;99578.79;;;13.30;60.48
62946;BME280;52164;52.212;-1.010;2023-04-22T10:03:12;99580.48;;;13.41;59.98
62946;BME280;52164;52.212;-1.010;2023-04-22T10:05:40;99576.13;;;13.51;59.13
62946;BME280;52164;52.212;-1.010;2023-04-22T10:08:06;99574.63;;;13.53;59.23
62946;BME280;52164;52.212;-1.010;2023-04-22T10:10:34;99572.30;;;13.59;58.83
62946;BME280;52164;52.212;-1.010;2023-04-22T10:12:59;99570.44;;;13.68;58.30
62946;BME280;52164;52.212;-1.010;2023-04-22T10:15:25;99567.11;;;13.72;58.58
62946;BME280;52164;52.212;-1.010;2023-04-22T10:17:51;99565.70;;;13.78;58.36
62946;BME280;52164;52.212;-1.010;2023-04-22T10:20:17;99559.96;;;13.84;57.87
62946;BME280;52164;52.212;-1.010;2023-04-22T10:22:44;99553.41;;;13.93;57.62
62946;BME280;52164;52.212;-1.010;2023-04-22T10:25:11;99556.67;;;14.05;57.68
62946;BME280;52164;52.212;-1.010;2023-04-22T10:27:37;99557.33;;;14.25;57.18
62946;BME280;52164;52.212;-1.010;2023-04-22T10:30:02;99557.01;;;14.41;56.69
62946;BME280;52164;52.212;-1.010;2023-04-22T10:32:28;99553.30;;;14.46;56.03
62946;BME280;52164;52.212;-1.010;2023-04-22T10:35:10;99553.76;;;14.48;56.05
62946;BME280;52164;52.212;-1.010;2023-04-22T10:37:39;99550.70;;;14.54;55.79
62946;BME280;52164;52.212;-1.010;2023-04-22T10:40:09;99552.91;;;14.46;55.74
62946;BME280;52164;52.212;-1.010;2023-04-22T10:42:38;99553.22;;;14.48;55.17
62946;BME280;52164;52.212;-1.010;2023-04-22T10:45:03;99553.77;;;14.42;54.48
62946;BME280;52164;52.212;-1.010;2023-04-22T10:47:30;99550.37;;;14.35;54.12
62946;BME280;52164;52.212;-1.010;2023-04-22T10:50:29;99554.30;;;14.36;54.06
62946;BME280;52164;52.212;-1.010;2023-04-22T10:52:41;99553.98;;;14.35;54.15
62946;BME280;52164;52.212;-1.010;2023-04-22T10:55:07;99551.21;;;14.32;53.92
62946;BME280;52164;52.212;-1.010;2023-04-22T10:57:34;99547.31;;;14.30;53.67
62946;BME280;52164;52.212;-1.010;2023-04-22T11:01:13;99540.59;;;14.38;53.67
62946;BME280;52164;52.212;-1.010;2023-04-22T11:02:51;99537.60;;;14.42;53.56
62946;BME280;52164;52.212;-1.010;2023-04-22T11:05:19;99534.98;;;14.46;53.49
62946;BME280;52164;52.212;-1.010;2023-04-22T11:07:46;99534.64;;;14.51;52.93
62946;BME280;52164;52.212;-1.010;2023-04-22T11:10:12;99531.52;;;14.59;52.81
62946;BME280;52164;52.212;-1.010;2023-04-22T11:12:56;99533.52;;;14.70;52.94
62946;BME280;52164;52.212;-1.010;2023-04-22T11:15:22;99534.02;;;14.88;52.23
62946;BME280;52164;52.212;-1.010;2023-04-22T11:17:50;99531.54;;;15.03;52.03
62946;BME280;52164;52.212;-1.010;2023-04-22T11:20:16;99529.05;;;15.18;51.37
62946;BME280;52164;52.212;-1.010;2023-04-22T11:22:43;99533.13;;;15.30;51.05
62946;BME280;52164;52.212;-1.010;2023-04-22T11:25:09;99531.17;;;15.24;50.50
62946;BME280;52164;52.212;-1.010;2023-04-22T11:27:34;99529.39;;;15.23;49.92
62946;BME280;52164;52.212;-1.010;2023-04-22T11:32:26;99529.25;;;15.38;49.88
62946;BME280;52164;52.212;-1.010;2023-04-22T11:34:51;99523.99;;;15.44;49.08
62946;BME280;52164;52.212;-1.010;2023-04-22T11:37:18;99528.54;;;15.58;48.90
62946;BME280;52164;52.212;-1.010;2023-04-22T11:39:43;99523.16;;;15.67;48.64
62946;BME280;52164;52.212;-1.010;2023-04-22T11:42:11;99519.66;;;15.80;48.35
62946;BME280;52164;52.212;-1.010;2023-04-22T11:44:37;99514.32;;;15.93;47.70
62946;BME280;52164;52.212;-1.010;2023-04-22T11:47:02;99516.23;;;16.04;47.92
62946;BME280;52164;52.212;-1.010;2023-04-22T11:49:27;99515.14;;;16.14;47.51
62946;BME280;52164;52.212;-1.010;2023-04-22T11:51:56;99515.58;;;16.16;47.52
62946;BME280;52164;52.212;-1.010;2023-04-22T11:54:30;99519.91;;;16.21;47.05
62946;BME280;52164;52.212;-1.010;2023-04-22T11:56:56;99518.50;;;16.25;46.97
62946;BME280;52164;52.212;-1.010;2023-04-22T11:59:24;99520.83;;;16.34;47.38
62946;BME280;52164;52.212;-1.010;2023-04-22T12:01:50;99528.68;;;16.41;46.72
62946;BME280;52164;52.212;-1.010;2023-04-22T12:04:15;99532.29;;;16.41;46.77
62946;BME280;52164;52.212;-1.010;2023-04-22T12:06:41;99535.85;;;16.42;46.56
62946;BME280;52164;52.212;-1.010;2023-04-22T12:09:06;99536.00;;;16.42;46.27
62946;BME280;52164;52.212;-1.010;2023-04-22T12:11:32;99539.83;;;16.41;45.89
62946;BME280;52164;52.212;-1.010;2023-04-22T12:14:04;99542.55;;;16.35;46.12
62946;BME280;52164;52.212;-1.010;2023-04-22T12:16:37;99539.55;;;16.39;46.40
62946;BME280;52164;52.212;-1.010;2023-04-22T12:19:03;99544.88;;;16.55;46.31
62946;BME280;52164;52.212;-1.010;2023-04-22T12:21:28;99545.15;;;16.66;46.17
62946;BME280;52164;52.212;-1.010;2023-04-22T12:23:58;99539.45;;;16.68;45.86
62946;BME280;52164;52.212;-1.010;2023-04-22T12:26:24;99543.38;;;16.74;45.71
62946;BME280;52164;52.212;-1.010;2023-04-22T12:28:50;99537.68;;;16.86;45.75
62946;BME280;52164;52.212;-1.010;2023-04-22T12:31:16;99537.34;;;16.95;45.11
62946;BME280;52164;52.212;-1.010;2023-04-22T12:33:42;99538.48;;;17.01;45.49
62946;BME280;52164;52.212;-1.010;2023-04-22T12:36:07;99541.10;;;17.08;45.27
62946;BME280;52164;52.212;-1.010;2023-04-22T12:38:33;99539.63;;;17.09;44.62
62946;BME280;52164;52.212;-1.010;2023-04-22T12:40:59;99540.70;;;17.17;44.77
62946;BME280;52164;52.212;-1.010;2023-04-22T12:43:25;99540.05;;;17.20;44.87
62946;BME280;52164;52.212;-1.010;2023-04-22T12:45:50;99542.46;;;17.22;44.94
62946;BME280;52164;52.212;-1.010;2023-04-22T12:48:16;99541.27;;;17.25;44.60
62946;BME280;52164;52.212;-1.010;2023-04-22T12:50:41;99548.98;;;17.22;45.02
62946;BME280;52164;52.212;-1.010;2023-04-22T12:53:06;99546.98;;;17.14;44.62